createdAt,value
2022-12-12T00:02:40.746Z,6.80
2022-12-12T00:05:45.291Z,10.07
2022-12-12T00:08:49.701Z,6.45
2022-12-12T00:11:54.183Z,7.18
2022-12-12T00:14:58.441Z,6.95
2022-12-12T00:18:02.756Z,8.57
2022-12-12T00:21:12.806Z,6.23
2022-12-12T00:24:16.906Z,7.55
2022-12-12T00:27:21.295Z,9.15
2022-12-12T00:30:26.038Z,6.35
2022-12-12T00:33:30.400Z,13.02
2022-12-12T00:36:35.087Z,11.57
2022-12-12T00:39:39.832Z,12.93
2022-12-12T00:42:44.301Z,5.93
2022-12-12T00:45:48.699Z,11.55
2022-12-12T00:48:57.124Z,8.37
2022-12-12T00:52:01.616Z,7.57
2022-12-12T00:55:06.674Z,7.18
2022-12-12T00:58:10.981Z,6.93
2022-12-12T01:01:19.616Z,11.30
2022-12-12T01:04:24.203Z,10.55
2022-12-12T01:07:29.530Z,11.93
2022-12-12T01:10:35.272Z,16.48
2022-12-12T01:13:40.593Z,6.85
2022-12-12T01:16:44.998Z,7.05
2022-12-12T01:19:49.426Z,7.85
2022-12-12T01:22:54.344Z,8.53
2022-12-12T01:26:03.569Z,5.25
2022-12-12T01:29:08.064Z,5.00
2022-12-12T01:32:13.658Z,6.88
2022-12-12T01:35:18.748Z,6.13
2022-12-12T01:38:25.423Z,6.60
2022-12-12T01:41:29.997Z,7.45
2022-12-12T01:44:49.221Z,7.78
2022-12-12T01:47:53.744Z,5.70
2022-12-12T01:51:01.140Z,6.32
2022-12-12T01:54:27.867Z,7.15
2022-12-12T01:57:36.305Z,4.50
2022-12-12T02:00:41.734Z,5.95
2022-12-12T02:03:49.058Z,5.05
2022-12-12T02:06:54.443Z,12.45
2022-12-12T02:13:10.707Z,10.50
2022-12-12T02:16:36.593Z,12.88
2022-12-12T02:20:25.579Z,9.77
2022-12-12T02:23:38.707Z,6.75
2022-12-12T02:27:08.363Z,6.85
2022-12-12T02:30:25.631Z,5.72
2022-12-12T02:34:00.444Z,7.13
2022-12-12T02:37:34.974Z,13.75
2022-12-12T02:41:11.338Z,10.68
2022-12-12T02:47:40.867Z,6.53
2022-12-12T02:50:48.266Z,5.13
2022-12-12T02:53:52.609Z,5.00
2022-12-12T02:56:59.765Z,5.43
2022-12-12T03:00:14.626Z,11.77
2022-12-12T03:03:58.412Z,6.80
2022-12-12T03:07:33.717Z,5.95
2022-12-12T03:10:45.233Z,7.00
2022-12-12T03:14:07.656Z,6.45
2022-12-12T03:17:17.021Z,8.32
2022-12-12T03:20:26.471Z,8.80
2022-12-12T03:23:49.170Z,8.82
2022-12-12T03:27:18.185Z,6.50
2022-12-12T03:30:22.841Z,8.52
2022-12-12T03:33:46.929Z,6.97
2022-12-12T03:36:59.772Z,6.22
2022-12-12T03:40:20.533Z,21.75
2022-12-12T03:43:47.421Z,9.02
2022-12-12T03:47:17.609Z,7.03
2022-12-12T03:50:31.647Z,4.70
2022-12-12T03:53:59.256Z,4.93
2022-12-12T03:57:11.393Z,7.28
2022-12-12T04:00:17.277Z,6.63
2022-12-12T04:03:39.842Z,6.78
2022-12-12T04:07:00.597Z,8.68
2022-12-12T04:10:25.515Z,11.68
2022-12-12T04:13:44.662Z,5.00
2022-12-12T04:17:01.318Z,7.43
2022-12-12T04:20:29.653Z,8.13
2022-12-12T04:23:56.924Z,8.48
2022-12-12T04:27:22.849Z,6.25
2022-12-12T04:30:30.610Z,6.93
2022-12-12T04:33:44.868Z,6.13
2022-12-12T04:36:50.761Z,6.07
2022-12-12T04:40:00.092Z,6.25
2022-12-12T04:43:10.371Z,5.70
2022-12-12T04:46:22.739Z,4.00
2022-12-12T04:49:31.293Z,3.35
2022-12-12T04:52:36.543Z,6.93
2022-12-12T04:55:46.347Z,4.75
2022-12-12T04:58:51.126Z,4.60
2022-12-12T05:02:06.246Z,4.85
2022-12-12T05:05:23.964Z,4.85
2022-12-12T05:08:39.381Z,4.88
2022-12-12T05:11:44.144Z,5.25
2022-12-12T05:14:49.417Z,4.15
2022-12-12T05:18:00.807Z,4.55
2022-12-12T05:21:05.305Z,6.13
2022-12-12T05:24:10.018Z,72.95
2022-12-12T05:27:14.550Z,24.52
2022-12-12T05:30:19.315Z,37.47
2022-12-12T05:33:25.048Z,11.18
2022-12-12T05:36:29.375Z,10.23
2022-12-12T05:39:33.814Z,4.70
2022-12-12T05:42:38.094Z,4.45
2022-12-12T05:45:44.072Z,4.47
2022-12-12T05:48:51.629Z,4.35
2022-12-12T05:51:55.992Z,4.50
2022-12-12T05:55:00.302Z,4.18
2022-12-12T05:58:07.241Z,4.88
2022-12-12T06:01:12.537Z,4.78
2022-12-12T06:04:16.950Z,5.03
2022-12-12T06:07:22.753Z,4.30
2022-12-12T06:10:27.362Z,4.53
2022-12-12T06:13:32.024Z,5.78
2022-12-12T06:16:36.941Z,10.87
2022-12-12T06:19:41.174Z,22.88
2022-12-12T06:22:52.020Z,16.30
2022-12-12T06:25:58.060Z,18.05
2022-12-12T06:29:02.574Z,5.23
2022-12-12T06:32:07.486Z,4.67
2022-12-12T06:35:13.425Z,4.57
2022-12-12T06:38:18.010Z,4.15
2022-12-12T06:41:23.397Z,3.97
2022-12-12T06:47:32.050Z,3.97
2022-12-12T06:50:40.020Z,4.32
2022-12-12T06:53:44.744Z,5.32
2022-12-12T06:56:50.619Z,8.75
2022-12-12T06:59:54.950Z,4.93
2022-12-12T07:02:59.730Z,5.55
2022-12-12T07:06:04.834Z,3.78
2022-12-12T07:09:10.039Z,5.55
2022-12-12T07:12:15.058Z,3.80
2022-12-12T07:15:19.360Z,3.85
2022-12-12T07:18:23.777Z,4.35
2022-12-12T07:21:28.306Z,3.78
2022-12-12T07:24:32.638Z,3.57
2022-12-12T07:27:37.075Z,21.83
2022-12-12T07:30:55.266Z,5.88
2022-12-12T07:34:03.023Z,4.95
2022-12-12T07:37:07.539Z,4.90
2022-12-12T07:40:13.225Z,3.67
2022-12-12T07:46:25.525Z,7.22
2022-12-12T07:49:31.002Z,22.55
2022-12-12T07:52:35.643Z,4.00
2022-12-12T07:55:41.564Z,5.67
2022-12-12T07:58:47.075Z,7.28
2022-12-12T08:04:56.046Z,11.10
2022-12-12T08:08:00.419Z,11.80
2022-12-12T08:11:09.954Z,9.57
2022-12-12T08:14:14.871Z,7.40
2022-12-12T08:17:19.054Z,8.93
2022-12-12T08:20:23.885Z,8.43
2022-12-12T08:23:28.455Z,8.90
2022-12-12T08:26:33.125Z,8.60
2022-12-12T08:29:37.724Z,7.95
2022-12-12T08:32:41.965Z,5.93
2022-12-12T08:35:46.874Z,5.03
2022-12-12T08:38:53.202Z,6.53
2022-12-12T08:41:57.645Z,7.53
2022-12-12T08:45:01.911Z,5.25
2022-12-12T08:51:12.888Z,4.38
2022-12-12T08:54:17.440Z,5.60
2022-12-12T08:57:25.896Z,6.10
2022-12-12T09:00:30.986Z,5.22
2022-12-12T09:03:35.691Z,5.80
2022-12-12T09:06:40.458Z,4.20
2022-12-12T09:09:45.088Z,6.90
2022-12-12T09:12:49.487Z,5.72
2022-12-12T09:15:55.174Z,7.25
2022-12-12T09:18:59.717Z,3.65
2022-12-12T09:22:05.254Z,4.35
2022-12-12T09:25:09.998Z,5.03
2022-12-12T09:28:17.031Z,4.65
2022-12-12T09:31:22.461Z,5.55
2022-12-12T09:34:26.888Z,5.20
2022-12-12T09:37:31.573Z,4.72
2022-12-12T09:40:55.422Z,4.63
2022-12-12T09:44:04.826Z,6.65
2022-12-12T09:47:16.878Z,4.63
2022-12-12T09:50:39.126Z,5.05
2022-12-12T09:53:46.609Z,5.05
2022-12-12T09:57:07.508Z,17.65
2022-12-12T10:00:16.213Z,3.25
2022-12-12T10:03:33.217Z,4.38
2022-12-12T10:06:56.475Z,6.63
2022-12-12T10:10:16.775Z,4.82
2022-12-12T10:13:27.893Z,3.97
2022-12-12T10:16:34.063Z,4.38
2022-12-12T10:19:49.595Z,6.43
2022-12-12T10:22:56.732Z,5.55
2022-12-12T10:26:16.988Z,5.60
2022-12-12T10:29:24.959Z,8.68
2022-12-12T10:32:41.629Z,3.65
2022-12-12T10:35:55.745Z,4.20
2022-12-12T10:39:30.941Z,13.80
2022-12-12T10:42:43.960Z,4.03
2022-12-12T10:46:14.473Z,7.63
2022-12-12T10:49:22.284Z,10.18
2022-12-12T10:52:26.733Z,2.83
2022-12-12T10:55:45.626Z,5.82
2022-12-12T10:59:04.939Z,2.85
2022-12-12T11:02:23.819Z,11.13
2022-12-12T11:05:32.842Z,10.98
2022-12-12T11:08:39.009Z,4.18
2022-12-12T11:12:06.208Z,2.90
2022-12-12T11:15:21.206Z,3.75
2022-12-12T11:18:26.971Z,2.83
2022-12-12T11:21:35.073Z,2.50
2022-12-12T11:24:45.059Z,3.25
2022-12-12T11:27:49.681Z,2.58
2022-12-12T11:30:57.373Z,8.48
2022-12-12T11:34:08.784Z,3.53
2022-12-12T11:37:21.996Z,4.57
2022-12-12T11:40:30.015Z,5.13
2022-12-12T11:43:38.519Z,4.38
2022-12-12T11:46:42.959Z,3.58
2022-12-12T11:49:53.478Z,4.35
2022-12-12T11:53:03.993Z,3.10
2022-12-12T11:56:20.313Z,2.55
2022-12-12T12:00:04.024Z,2.25
2022-12-12T12:03:23.952Z,2.67
2022-12-12T12:06:50.173Z,2.65
2022-12-12T12:10:21.057Z,2.58
2022-12-12T12:13:28.881Z,4.68
2022-12-12T12:16:51.829Z,6.53
2022-12-12T12:20:20.984Z,4.60
2022-12-12T12:23:41.254Z,7.13
2022-12-12T12:26:55.022Z,5.10
2022-12-12T12:30:17.347Z,4.70
2022-12-12T12:33:27.073Z,6.55
2022-12-12T12:36:55.790Z,3.42
2022-12-12T12:40:14.160Z,3.90
2022-12-12T12:43:30.584Z,4.70
2022-12-12T12:46:44.074Z,5.55
2022-12-12T12:50:04.189Z,4.30
2022-12-12T12:53:44.601Z,8.68
2022-12-12T12:56:57.745Z,6.93
2022-12-12T13:00:24.065Z,6.00
2022-12-12T13:06:58.853Z,6.45
2022-12-12T13:10:16.070Z,2.78
2022-12-12T13:13:31.415Z,3.00
2022-12-12T13:16:36.192Z,3.50
2022-12-12T13:19:44.244Z,2.93
2022-12-12T13:23:07.205Z,2.67
2022-12-12T13:26:50.476Z,3.35
2022-12-12T13:30:19.666Z,2.70
2022-12-12T13:33:50.884Z,3.45
2022-12-12T13:36:57.233Z,3.08
2022-12-12T13:40:05.754Z,3.22
2022-12-12T13:43:32.485Z,4.32
2022-12-12T13:46:41.995Z,2.63
2022-12-12T13:50:19.747Z,2.50
2022-12-12T13:53:24.163Z,2.90
2022-12-12T13:57:04.762Z,2.63
2022-12-12T14:00:18.827Z,2.58
2022-12-12T14:03:30.835Z,2.28
2022-12-12T14:06:35.455Z,3.00
2022-12-12T14:09:50.342Z,2.65
2022-12-12T14:12:56.202Z,6.20
2022-12-12T14:16:04.593Z,4.45
2022-12-12T14:19:22.160Z,6.22
2022-12-12T14:23:09.356Z,6.90
2022-12-12T14:26:28.943Z,3.88
2022-12-12T14:29:41.397Z,2.35
2022-12-12T14:33:05.961Z,2.75
2022-12-12T14:36:44.113Z,1.65
2022-12-12T14:40:01.402Z,2.65
2022-12-12T14:43:18.837Z,2.90
2022-12-12T14:46:26.885Z,2.45
2022-12-12T14:49:31.692Z,2.17
2022-12-12T14:52:36.605Z,3.05
2022-12-12T14:56:09.872Z,2.58
2022-12-12T14:59:20.582Z,2.80
2022-12-12T15:02:35.800Z,2.58
2022-12-12T15:05:40.576Z,2.90
2022-12-12T15:08:45.541Z,2.43
2022-12-12T15:11:50.989Z,2.50
2022-12-12T15:14:57.797Z,2.38
2022-12-12T15:18:03.509Z,2.60
2022-12-12T15:21:09.119Z,2.58
2022-12-12T15:24:25.799Z,2.80
2022-12-12T15:27:46.926Z,2.33
2022-12-12T15:30:56.042Z,2.10
2022-12-12T15:34:02.842Z,2.47
2022-12-12T15:37:26.150Z,2.22
2022-12-12T15:40:33.069Z,2.25
2022-12-12T15:43:39.622Z,3.00
2022-12-12T15:46:44.542Z,4.25
2022-12-12T15:49:49.042Z,9.68
2022-12-12T15:53:24.252Z,10.48
2022-12-12T15:56:30.687Z,6.15
2022-12-12T15:59:35.267Z,7.70
2022-12-12T16:02:41.718Z,3.08
2022-12-12T16:05:58.083Z,2.40
2022-12-12T16:09:27.496Z,2.40
2022-12-12T16:13:26.319Z,3.17
2022-12-12T16:16:42.754Z,2.50
2022-12-12T16:19:55.813Z,3.20
2022-12-12T16:23:30.447Z,2.55
2022-12-12T16:26:34.779Z,2.60
2022-12-12T16:29:39.101Z,2.38
2022-12-12T16:32:44.514Z,2.63
2022-12-12T16:35:49.432Z,2.67
2022-12-12T16:38:54.081Z,2.35
2022-12-12T16:41:58.721Z,2.90
2022-12-12T16:45:03.350Z,2.57
2022-12-12T16:48:25.490Z,1.95
2022-12-12T16:51:31.614Z,2.25
2022-12-12T16:54:35.846Z,2.85
2022-12-12T16:57:40.381Z,1.80
2022-12-12T17:00:46.060Z,2.35
2022-12-12T17:06:55.537Z,3.03
2022-12-12T17:09:59.864Z,2.70
2022-12-12T17:13:09.290Z,6.03
2022-12-12T17:16:13.939Z,8.73
2022-12-12T17:19:18.566Z,8.90
2022-12-12T17:22:22.962Z,17.10
2022-12-12T17:25:27.237Z,8.60
2022-12-12T17:28:32.366Z,4.45
2022-12-12T17:31:41.036Z,4.53
2022-12-12T17:34:45.706Z,3.28
2022-12-12T17:37:50.282Z,3.22
2022-12-12T17:40:57.469Z,2.90
2022-12-12T17:44:01.983Z,3.10
2022-12-12T17:47:06.373Z,2.70
2022-12-12T17:50:11.550Z,2.92
2022-12-12T17:53:16.005Z,2.50
2022-12-12T17:56:26.326Z,3.40
2022-12-12T17:59:30.529Z,2.47
2022-12-12T18:02:34.991Z,2.47
2022-12-12T18:05:39.400Z,3.95
2022-12-12T18:08:45.289Z,5.45
2022-12-12T18:11:49.872Z,13.05
2022-12-12T18:14:54.243Z,14.80
2022-12-12T18:17:58.677Z,14.38
2022-12-12T18:21:08.320Z,10.63
2022-12-12T18:24:13.316Z,6.55
2022-12-12T18:27:17.673Z,5.10
2022-12-12T18:30:22.316Z,4.32
2022-12-12T18:33:26.956Z,2.55
2022-12-12T18:36:32.699Z,2.38
2022-12-12T18:39:37.362Z,2.85
2022-12-12T18:42:41.972Z,2.43
2022-12-12T18:45:46.489Z,2.38
2022-12-12T18:48:51.344Z,2.50
2022-12-12T18:51:55.778Z,2.90
2022-12-12T18:55:00.428Z,2.80
2022-12-12T18:58:04.810Z,2.97
2022-12-12T19:01:24.048Z,3.28
2022-12-12T19:04:28.610Z,2.38
2022-12-12T19:07:33.164Z,6.65
2022-12-12T19:10:38.921Z,2.83
2022-12-12T19:16:49.604Z,1.80
2022-12-12T19:19:54.792Z,2.30
2022-12-12T19:22:59.420Z,3.70
2022-12-12T19:26:12.380Z,3.30
2022-12-12T19:29:19.461Z,2.70
2022-12-12T19:32:23.920Z,2.67
2022-12-12T19:35:28.338Z,2.28
2022-12-12T19:38:32.922Z,2.22
2022-12-12T19:41:37.439Z,2.70
2022-12-12T19:44:43.553Z,2.47
2022-12-12T19:47:48.064Z,2.40
2022-12-12T19:50:52.796Z,2.58
2022-12-12T19:53:59.334Z,2.40
2022-12-12T19:57:03.672Z,2.40
2022-12-12T20:00:10.431Z,2.70
2022-12-12T20:03:14.528Z,2.50
2022-12-12T20:06:19.734Z,2.13
2022-12-12T20:09:36.127Z,3.42
2022-12-12T20:12:47.056Z,9.45
2022-12-12T20:16:04.136Z,12.75
2022-12-12T20:19:08.709Z,24.75
2022-12-12T20:22:13.114Z,6.35
2022-12-12T20:25:17.493Z,2.70
2022-12-12T20:28:22.211Z,2.28
2022-12-12T20:31:29.588Z,2.60
2022-12-12T20:34:34.162Z,2.60
2022-12-12T20:37:39.096Z,6.18
2022-12-12T20:40:43.610Z,8.93
2022-12-12T20:43:48.886Z,4.65
2022-12-12T20:46:53.333Z,8.13
2022-12-12T20:49:57.992Z,10.90
2022-12-12T20:53:02.344Z,20.05
2022-12-12T20:56:12.125Z,9.27
2022-12-12T20:59:16.555Z,7.78
2022-12-12T21:02:23.061Z,6.13
2022-12-12T21:05:31.241Z,6.97
2022-12-12T21:08:36.036Z,4.63
2022-12-12T21:11:40.727Z,6.13
2022-12-12T21:14:45.253Z,8.68
2022-12-12T21:17:49.611Z,7.90
2022-12-12T21:20:53.854Z,10.25
2022-12-12T21:23:58.839Z,9.10
2022-12-12T21:27:03.177Z,14.43
2022-12-12T21:30:08.377Z,12.20
2022-12-12T21:33:12.841Z,8.88
2022-12-12T21:36:19.763Z,6.93
2022-12-12T21:39:27.576Z,11.05
2022-12-12T21:42:32.230Z,15.85
2022-12-12T21:45:39.117Z,15.33
2022-12-12T21:48:43.412Z,15.63
2022-12-12T21:51:48.168Z,20.05
2022-12-12T21:54:52.600Z,15.37
2022-12-12T21:57:56.960Z,12.18
2022-12-12T22:01:10.716Z,10.70
2022-12-12T22:04:15.884Z,10.18
2022-12-12T22:07:21.661Z,7.35
2022-12-12T22:13:33.159Z,8.95
2022-12-12T22:16:41.164Z,6.88
2022-12-12T22:19:45.811Z,12.68
2022-12-12T22:22:50.432Z,14.57
2022-12-12T22:25:55.069Z,17.08
2022-12-12T22:29:03.576Z,16.83
2022-12-12T22:32:07.856Z,18.63
2022-12-12T22:35:12.831Z,15.70
2022-12-12T22:38:17.381Z,13.73
2022-12-12T22:41:22.815Z,14.48
2022-12-12T22:44:27.743Z,8.50
2022-12-12T22:47:32.169Z,8.13
2022-12-12T22:50:36.804Z,9.48
2022-12-12T22:53:44.369Z,7.88
2022-12-12T22:56:49.265Z,10.52
2022-12-12T22:59:53.590Z,13.80
2022-12-12T23:02:58.070Z,13.85
2022-12-12T23:06:12.066Z,12.95
2022-12-12T23:09:22.441Z,14.73
2022-12-12T23:12:26.818Z,20.05
2022-12-12T23:15:31.307Z,20.85
2022-12-12T23:18:38.628Z,12.73
2022-12-12T23:21:43.419Z,45.05
2022-12-12T23:24:48.405Z,55.58
2022-12-12T23:27:52.857Z,51.33
2022-12-12T23:30:57.655Z,18.38
2022-12-12T23:34:05.185Z,33.33
2022-12-12T23:37:10.246Z,18.23
2022-12-12T23:40:14.783Z,17.40
2022-12-12T23:43:19.419Z,17.98
2022-12-12T23:46:32.235Z,12.20
2022-12-12T23:49:36.841Z,7.18
2022-12-12T23:52:41.220Z,7.25
2022-12-12T23:55:45.564Z,8.38
2022-12-12T23:58:49.940Z,5.78
